sensor_id;sensor_type;location;lat;lon;timestamp;temperature;humidity
7378;DHT22;3730;50.856;12.776;2023-08-20T09:19:36;25.70;99.90
7378;DHT22;3730;50.856;12.776;2023-08-20T09:22:05;25.40;1.00
7378;DHT22;3730;50.856;12.776;2023-08-20T09:24:39;25.30;99.90
7378;DHT22;3730;50.856;12.776;2023-08-20T09:27:05;25.30;99.90
7378;DHT22;3730;50.856;12.776;2023-08-20T09:34:55;25.40;99.90
7378;DHT22;3730;50.856;12.776;2023-08-20T09:37:23;25.40;99.90
7378;DHT22;3730;50.856;12.776;2023-08-20T09:39:49;25.40;99.90
7378;DHT22;3730;50.856;12.776;2023-08-20T09:42:15;25.50;99.90
7378;DHT22;3730;50.856;12.776;2023-08-20T09:44:45;25.60;99.90
7378;DHT22;3730;50.856;12.776;2023-08-20T09:47:16;25.60;99.90
7378;DHT22;3730;50.856;12.776;2023-08-20T09:49:43;25.60;99.90
7378;DHT22;3730;50.856;12.776;2023-08-20T09:52:11;25.60;99.90
7378;DHT22;3730;50.856;12.776;2023-08-20T11:54:12;25.60;99.90
7378;DHT22;3730;50.856;12.776;2023-08-20T13:10:21;28.70;99.90
7378;DHT22;3730;50.856;12.776;2023-08-20T13:54:20;31.00;95.50
7378;DHT22;3730;50.856;12.776;2023-08-20T16:01:10;32.50;1.00
7378;DHT22;3730;50.856;12.776;2023-08-20T16:03:35;34.40;1.00
7378;DHT22;3730;50.856;12.776;2023-08-20T16:35:21;34.20;1.00
7378;DHT22;3730;50.856;12.776;2023-08-20T16:37:47;32.80;1.00
7378;DHT22;3730;50.856;12.776;2023-08-20T16:40:22;32.60;1.00
7378;DHT22;3730;50.856;12.776;2023-08-20T16:42:48;32.50;1.00
7378;DHT22;3730;50.856;12.776;2023-08-20T16:54:58;32.40;1.00
7378;DHT22;3730;50.856;12.776;2023-08-20T16:57:24;31.80;1.00
7378;DHT22;3730;50.856;12.776;2023-08-20T17:46:10;31.70;1.00
7378;DHT22;3730;50.856;12.776;2023-08-20T17:48:36;29.80;1.00
7378;DHT22;3730;50.856;12.776;2023-08-20T17:51:02;29.70;1.00
7378;DHT22;3730;50.856;12.776;2023-08-20T17:53:28;29.60;1.00
7378;DHT22;3730;50.856;12.776;2023-08-20T17:55:54;29.60;1.00
7378;DHT22;3730;50.856;12.776;2023-08-20T18:32:36;29.50;1.00
7378;DHT22;3730;50.856;12.776;2023-08-20T18:35:02;28.30;67.40
7378;DHT22;3730;50.856;12.776;2023-08-20T18:37:29;28.30;69.10
7378;DHT22;3730;50.856;12.776;2023-08-20T18:39:55;28.20;77.60
7378;DHT22;3730;50.856;12.776;2023-08-20T19:14:09;28.20;89.70
7378;DHT22;3730;50.856;12.776;2023-08-20T19:16:34;27.30;99.90
7378;DHT22;3730;50.856;12.776;2023-08-20T19:19:00;27.30;99.90
7378;DHT22;3730;50.856;12.776;2023-08-20T19:21:25;27.30;99.90
7378;DHT22;3730;50.856;12.776;2023-08-20T19:23:51;27.20;99.90
7378;DHT22;3730;50.856;12.776;2023-08-20T19:26:18;27.20;99.90
7378;DHT22;3730;50.856;12.776;2023-08-20T19:28:43;27.10;99.90
7378;DHT22;3730;50.856;12.776;2023-08-20T19:31:09;27.10;99.90
7378;DHT22;3730;50.856;12.776;2023-08-20T19:33:35;27.10;99.90
7378;DHT22;3730;50.856;12.776;2023-08-20T19:36:02;27.00;99.90
7378;DHT22;3730;50.856;12.776;2023-08-20T19:38:30;27.00;99.90
7378;DHT22;3730;50.856;12.776;2023-08-20T19:40:57;27.00;99.90
7378;DHT22;3730;50.856;12.776;2023-08-20T19:43:22;26.90;99.90
7378;DHT22;3730;50.856;12.776;2023-08-20T19:45:49;26.90;99.90
7378;DHT22;3730;50.856;12.776;2023-08-20T19:48:15;26.90;99.90
7378;DHT22;3730;50.856;12.776;2023-08-20T19:50:41;26.90;99.90
7378;DHT22;3730;50.856;12.776;2023-08-20T19:53:07;26.90;99.90
7378;DHT22;3730;50.856;12.776;2023-08-20T19:55:33;26.80;99.90
7378;DHT22;3730;50.856;12.776;2023-08-20T19:57:58;26.80;99.90
7378;DHT22;3730;50.856;12.776;2023-08-20T20:00:26;26.80;99.90
7378;DHT22;3730;50.856;12.776;2023-08-20T20:02:52;26.70;99.90
7378;DHT22;3730;50.856;12.776;2023-08-20T20:05:19;26.70;99.90
7378;DHT22;3730;50.856;12.776;2023-08-20T20:07:45;26.70;99.90
7378;DHT22;3730;50.856;12.776;2023-08-20T20:10:11;26.60;99.90
7378;DHT22;3730;50.856;12.776;2023-08-20T20:12:38;26.60;99.90
7378;DHT22;3730;50.856;12.776;2023-08-20T20:15:05;26.60;99.90
7378;DHT22;3730;50.856;12.776;2023-08-20T20:17:31;26.60;99.90
7378;DHT22;3730;50.856;12.776;2023-08-20T20:19:57;26.50;99.90
7378;DHT22;3730;50.856;12.776;2023-08-20T20:22:23;26.50;99.90
